Time;durP1;ratioP1;P1;durP2;ratioP2;P2;SDS_P1;SDS_P2;PMS_P1;PMS_P2;Temp;Humidity;BMP_temperature;BMP_pressure;BME280_temperature;BME280_humidity;BME280_pressure;Samples;Min_cycle;Max_cycle;Signal;HPM_P1;HPM_P2
2021/07/28 00:01:24;;;;;;;6.95;4.40;;;;;;;;;;6302492;22;20068;-35
2021/07/28 00:03:50;;;;;;;10.13;5.15;;;;;;;;;;6302279;22;20433;-34
2021/07/28 00:06:21;;;;;;;12.13;4.47;;;;;;;;;;6302548;22;20045;-34
2021/07/28 00:08:47;;;;;;;6.35;3.78;;;;;;;;;;6302659;22;19995;-34
2021/07/28 00:11:13;;;;;;;6.68;4.35;;;;;;;;;;6303241;22;20006;-34
2021/07/28 00:13:38;;;;;;;5.82;4.53;;;;;;;;;;6302477;22;19995;-34
2021/07/28 00:16:09;;;;;;;10.35;5.25;;;;;;;;;;6302087;22;20006;-34
2021/07/28 00:18:42;;;;;;;10.63;4.47;;;;;;;;;;6302283;22;20011;-35
2021/07/28 00:23:51;;;;;;;10.50;5.65;;;;;;;;;;6302257;22;20086;-34
2021/07/28 00:26:17;;;;;;;7.93;5.25;;;;;;;;;;6302781;22;20058;-34
2021/07/28 00:28:42;;;;;;;7.68;4.32;;;;;;;;;;6302434;22;20137;-34
2021/07/28 00:31:07;;;;;;;5.50;3.90;;;;;;;;;;6302257;22;20499;-34
2021/07/28 00:33:32;;;;;;;6.35;4.63;;;;;;;;;;6302667;22;20069;-34
2021/07/28 00:35:59;;;;;;;6.95;4.35;;;;;;;;;;6302346;22;20010;-34
2021/07/28 00:38:25;;;;;;;7.35;4.93;;;;;;;;;;6302259;22;20007;-33
2021/07/28 00:40:51;;;;;;;8.45;5.47;;;;;;;;;;6302701;22;20300;-34
2021/07/28 00:43:16;;;;;;;4.43;3.53;;;;;;;;;;6302583;22;20448;-33
2021/07/28 00:45:42;;;;;;;6.15;4.30;;;;;;;;;;6302598;22;20026;-34
2021/07/28 00:48:08;;;;;;;10.18;4.90;;;;;;;;;;6302064;22;20010;-34
2021/07/28 00:50:35;;;;;;;7.82;5.53;;;;;;;;;;6302043;22;20007;-34
2021/07/28 00:53:02;;;;;;;10.43;5.68;;;;;;;;;;6301646;22;19999;-34
2021/07/28 00:55:28;;;;;;;9.52;6.47;;;;;;;;;;6302268;22;19999;-34
2021/07/28 00:57:54;;;;;;;4.88;4.15;;;;;;;;;;6301652;22;20030;-34
2021/07/28 01:00:19;;;;;;;7.03;5.38;;;;;;;;;;6302133;22;20030;-34
2021/07/28 01:02:44;;;;;;;7.75;6.20;;;;;;;;;;6302176;22;20045;-33
2021/07/28 01:05:10;;;;;;;7.95;6.40;;;;;;;;;;6301777;22;19995;-33
2021/07/28 01:07:35;;;;;;;5.13;3.75;;;;;;;;;;6301987;22;20044;-33
2021/07/28 01:10:00;;;;;;;9.63;7.18;;;;;;;;;;6301885;22;19991;-33
2021/07/28 01:12:28;;;;;;;5.38;4.03;;;;;;;;;;6302238;22;20074;-33
2021/07/28 01:14:54;;;;;;;6.47;4.88;;;;;;;;;;6302237;22;20336;-34
2021/07/28 01:17:19;;;;;;;12.75;6.72;;;;;;;;;;6302057;22;20412;-33
2021/07/28 01:19:47;;;;;;;6.43;5.40;;;;;;;;;;6301774;22;20023;-35
2021/07/28 01:22:13;;;;;;;5.85;5.15;;;;;;;;;;6301644;22;19999;-34
2021/07/28 01:24:38;;;;;;;5.03;4.55;;;;;;;;;;6302173;22;20048;-34
2021/07/28 01:27:05;;;;;;;6.30;4.63;;;;;;;;;;6302365;22;20535;-33
2021/07/28 01:29:31;;;;;;;8.20;5.53;;;;;;;;;;6302435;22;19999;-33
2021/07/28 01:31:56;;;;;;;8.38;4.72;;;;;;;;;;6301664;22;20044;-34
2021/07/28 01:34:22;;;;;;;7.70;4.20;;;;;;;;;;6301747;22;20565;-33
2021/07/28 01:36:48;;;;;;;6.25;5.55;;;;;;;;;;6301739;22;20003;-33
2021/07/28 01:39:14;;;;;;;8.85;5.03;;;;;;;;;;6302147;22;20003;-33
2021/07/28 01:41:39;;;;;;;7.93;4.53;;;;;;;;;;6301669;22;20347;-33
2021/07/28 01:44:04;;;;;;;6.20;5.00;;;;;;;;;;6301524;22;20045;-33
2021/07/28 01:46:29;;;;;;;8.82;5.43;;;;;;;;;;6301480;22;19991;-33
2021/07/28 01:48:55;;;;;;;6.05;4.57;;;;;;;;;;6301456;22;20082;-33
2021/07/28 01:51:20;;;;;;;7.10;5.20;;;;;;;;;;6301190;22;20030;-33
2021/07/28 01:53:45;;;;;;;7.45;4.13;;;;;;;;;;6301955;22;19998;-33
2021/07/28 01:56:11;;;;;;;6.53;5.35;;;;;;;;;;6301451;22;20065;-33
2021/07/28 01:58:39;;;;;;;12.15;5.45;;;;;;;;;;6301213;22;19995;-33
2021/07/28 02:01:04;;;;;;;7.25;5.22;;;;;;;;;;6301319;22;19995;-33
2021/07/28 02:03:29;;;;;;;5.75;5.05;;;;;;;;;;6301894;22;20045;-34
2021/07/28 02:05:55;;;;;;;4.90;4.15;;;;;;;;;;6301443;22;20436;-34
2021/07/28 02:08:20;;;;;;;6.88;4.60;;;;;;;;;;6302264;22;20070;-34
2021/07/28 02:10:46;;;;;;;6.97;5.05;;;;;;;;;;6301630;22;20273;-34
2021/07/28 02:13:12;;;;;;;7.47;3.72;;;;;;;;;;6301522;22;19999;-34
2021/07/28 02:15:38;;;;;;;6.68;4.20;;;;;;;;;;6301520;22;20003;-33
2021/07/28 02:18:04;;;;;;;10.02;4.32;;;;;;;;;;6301308;22;20025;-33
2021/07/28 02:20:29;;;;;;;5.32;4.82;;;;;;;;;;6301263;22;20019;-33
2021/07/28 02:22:55;;;;;;;9.65;4.93;;;;;;;;;;6301562;22;20493;-33
2021/07/28 02:25:20;;;;;;;11.38;3.88;;;;;;;;;;6300925;22;20018;-34
2021/07/28 02:27:45;;;;;;;5.22;4.72;;;;;;;;;;6300319;22;20075;-33
2021/07/28 02:30:11;;;;;;;4.70;4.13;;;;;;;;;;6300848;22;20031;-33
2021/07/28 02:32:37;;;;;;;8.30;3.90;;;;;;;;;;6301182;22;20007;-33
2021/07/28 02:35:03;;;;;;;7.18;4.80;;;;;;;;;;6301408;22;20443;-34
2021/07/28 02:37:28;;;;;;;8.68;4.85;;;;;;;;;;6301760;22;20122;-33
2021/07/28 02:39:53;;;;;;;6.38;4.47;;;;;;;;;;6301676;22;20484;-34
2021/07/28 02:42:19;;;;;;;7.60;3.95;;;;;;;;;;6301170;22;20082;-33
2021/07/28 02:44:44;;;;;;;7.57;5.13;;;;;;;;;;6301625;22;19995;-34
2021/07/28 02:47:10;;;;;;;8.75;4.72;;;;;;;;;;6301756;22;20489;-33
2021/07/28 02:49:35;;;;;;;7.88;4.20;;;;;;;;;;6301503;22;19995;-33
2021/07/28 02:52:01;;;;;;;8.90;4.10;;;;;;;;;;6301305;22;20022;-34
2021/07/28 02:54:26;;;;;;;8.73;4.95;;;;;;;;;;6301104;22;20459;-34
2021/07/28 02:56:51;;;;;;;5.63;3.83;;;;;;;;;;6300898;22;20006;-34
2021/07/28 02:59:16;;;;;;;6.55;4.60;;;;;;;;;;6301404;22;19999;-34
2021/07/28 03:01:42;;;;;;;5.30;4.47;;;;;;;;;;6301339;22;20438;-34
2021/07/28 03:04:07;;;;;;;7.00;5.35;;;;;;;;;;6301100;22;20328;-34
2021/07/28 03:06:32;;;;;;;7.45;5.38;;;;;;;;;;6301439;22;20006;-34
2021/07/28 03:08:58;;;;;;;4.35;3.95;;;;;;;;;;6300865;22;20442;-53
2021/07/28 03:11:23;;;;;;;5.78;3.83;;;;;;;;;;6301064;22;19995;-48
2021/07/28 03:13:48;;;;;;;8.32;5.40;;;;;;;;;;6301326;22;19992;-51
2021/07/28 03:16:14;;;;;;;5.10;4.43;;;;;;;;;;6301976;22;20575;-53
2021/07/28 03:18:39;;;;;;;9.63;5.28;;;;;;;;;;6302735;22;20455;-47
2021/07/28 03:21:04;;;;;;;6.15;4.68;;;;;;;;;;6303060;22;20003;-51
2021/07/28 03:23:30;;;;;;;4.97;4.47;;;;;;;;;;6303353;22;20203;-49
2021/07/28 03:25:55;;;;;;;6.13;4.35;;;;;;;;;;6302694;22;20070;-51
2021/07/28 03:28:20;;;;;;;13.73;4.97;;;;;;;;;;6302746;22;20078;-51
2021/07/28 03:30:46;;;;;;;6.63;4.60;;;;;;;;;;6302893;22;19999;-53
2021/07/28 03:33:11;;;;;;;11.18;5.18;;;;;;;;;;6302485;22;20003;-50
2021/07/28 03:35:36;;;;;;;4.43;4.03;;;;;;;;;;6302784;22;20052;-48
2021/07/28 03:38:01;;;;;;;7.15;4.80;;;;;;;;;;6303069;22;20074;-50
2021/07/28 03:40:27;;;;;;;7.05;4.85;;;;;;;;;;6302782;22;20345;-54
2021/07/28 03:42:52;;;;;;;5.00;4.30;;;;;;;;;;6302781;22;20003;-53
2021/07/28 03:45:17;;;;;;;7.40;5.38;;;;;;;;;;6302651;22;20000;-48
2021/07/28 03:47:43;;;;;;;5.63;3.58;;;;;;;;;;6302578;22;20433;-49
2021/07/28 03:50:08;;;;;;;5.60;4.65;;;;;;;;;;6303106;22;20107;-52
2021/07/28 03:52:34;;;;;;;12.88;6.20;;;;;;;;;;6302271;22;20003;-53
2021/07/28 03:54:59;;;;;;;8.70;5.72;;;;;;;;;;6302961;22;19995;-50
2021/07/28 03:57:24;;;;;;;6.88;3.95;;;;;;;;;;6302638;22;20428;-52
2021/07/28 03:59:49;;;;;;;11.48;5.30;;;;;;;;;;6302447;22;19995;-51
2021/07/28 04:02:15;;;;;;;6.00;4.15;;;;;;;;;;6302445;22;20014;-57
2021/07/28 04:04:40;;;;;;;4.85;3.28;;;;;;;;;;6302982;22;20015;-58
2021/07/28 04:07:06;;;;;;;9.02;7.05;;;;;;;;;;6302761;22;20474;-50
2021/07/28 04:09:32;;;;;;;13.43;5.18;;;;;;;;;;6303028;22;20074;-50
2021/07/28 04:11:57;;;;;;;8.57;5.10;;;;;;;;;;6300301;22;20405;-50
2021/07/28 04:14:22;;;;;;;6.70;5.10;;;;;;;;;;6303059;22;20074;-52
2021/07/28 04:16:47;;;;;;;6.07;4.35;;;;;;;;;;6303000;22;20007;-49
2021/07/28 04:19:13;;;;;;;6.97;4.32;;;;;;;;;;6302113;22;20718;-51
2021/07/28 04:21:38;;;;;;;5.57;3.70;;;;;;;;;;6302339;22;20002;-48
2021/07/28 04:24:03;;;;;;;6.75;4.90;;;;;;;;;;6302440;22;20137;-50
2021/07/28 04:26:29;;;;;;;7.78;5.10;;;;;;;;;;6302388;22;19995;-51
2021/07/28 04:28:54;;;;;;;6.00;5.40;;;;;;;;;;6301384;22;19991;-50
2021/07/28 04:31:19;;;;;;;7.30;4.80;;;;;;;;;;6302126;22;19999;-49
2021/07/28 04:33:45;;;;;;;6.50;4.93;;;;;;;;;;6302178;22;20079;-53
2021/07/28 04:36:10;;;;;;;13.30;4.43;;;;;;;;;;6301727;22;20002;-49
2021/07/28 04:38:35;;;;;;;6.22;3.55;;;;;;;;;;6302465;22;20401;-51
2021/07/28 04:41:01;;;;;;;4.78;4.22;;;;;;;;;;6302018;22;19998;-51
2021/07/28 04:43:26;;;;;;;6.50;4.15;;;;;;;;;;6302595;22;20002;-49
2021/07/28 04:45:58;;;;;;;7.47;4.85;;;;;;;;;;6301958;22;19995;-51
2021/07/28 04:48:24;;;;;;;7.50;4.35;;;;;;;;;;6300321;22;19991;-53
2021/07/28 04:50:49;;;;;;;13.43;7.07;;;;;;;;;;6302138;22;19995;-50
2021/07/28 04:53:14;;;;;;;5.65;5.05;;;;;;;;;;6301900;22;20416;-52
2021/07/28 04:55:40;;;;;;;20.10;5.85;;;;;;;;;;6302165;22;20099;-51
2021/07/28 04:58:07;;;;;;;8.68;6.22;;;;;;;;;;6302467;22;20010;-50
2021/07/28 05:00:32;;;;;;;6.90;6.20;;;;;;;;;;6302061;22;20083;-50
2021/07/28 05:02:58;;;;;;;8.23;5.55;;;;;;;;;;6301831;22;20035;-54
2021/07/28 05:05:23;;;;;;;9.60;8.32;;;;;;;;;;6301868;22;19994;-50
2021/07/28 05:07:48;;;;;;;7.00;6.30;;;;;;;;;;6301742;22;20070;-51
2021/07/28 05:10:14;;;;;;;7.05;5.90;;;;;;;;;;6302362;22;20401;-50
2021/07/28 05:12:39;;;;;;;7.85;7.15;;;;;;;;;;6302014;22;20007;-55
2021/07/28 05:15:05;;;;;;;9.27;6.75;;;;;;;;;;6301889;22;20496;-52
2021/07/28 05:17:30;;;;;;;13.63;10.25;;;;;;;;;;6301870;22;19995;-54
2021/07/28 05:19:55;;;;;;;10.70;9.68;;;;;;;;;;6301378;22;20020;-53
2021/07/28 05:22:21;;;;;;;19.42;8.02;;;;;;;;;;6301179;22;20405;-54
2021/07/28 05:24:46;;;;;;;14.52;9.63;;;;;;;;;;6301880;22;19997;-54
2021/07/28 05:27:12;;;;;;;11.60;8.18;;;;;;;;;;6301998;22;19999;-57
2021/07/28 05:29:37;;;;;;;11.35;7.03;;;;;;;;;;6302017;22;20106;-57
2021/07/28 05:32:02;;;;;;;11.40;7.50;;;;;;;;;;6301211;22;20045;-57
2021/07/28 05:34:27;;;;;;;14.15;10.23;;;;;;;;;;6301360;22;20044;-57
2021/07/28 05:36:57;;;;;;;10.45;9.52;;;;;;;;;;6273970;22;20448;-57
2021/07/28 05:39:22;;;;;;;10.27;9.27;;;;;;;;;;6301164;22;20070;-55
2021/07/28 05:41:47;;;;;;;7.57;6.72;;;;;;;;;;6301795;22;20705;-53
2021/07/28 05:44:12;;;;;;;52.10;32.75;;;;;;;;;;6301886;22;20070;-51
2021/07/28 05:46:38;;;;;;;120.45;76.47;;;;;;;;;;6301619;22;20007;-50
2021/07/28 05:49:03;;;;;;;115.07;74.75;;;;;;;;;;6301245;22;20417;-50
2021/07/28 05:51:28;;;;;;;119.80;68.57;;;;;;;;;;6301034;22;20002;-50
2021/07/28 05:53:54;;;;;;;117.18;75.35;;;;;;;;;;6301126;22;19991;-50
2021/07/28 05:56:19;;;;;;;91.63;71.30;;;;;;;;;;6301336;22;19999;-50
2021/07/28 05:58:44;;;;;;;44.08;31.40;;;;;;;;;;6301627;22;20006;-54
2021/07/28 06:01:10;;;;;;;32.53;21.52;;;;;;;;;;6301143;22;20465;-51
2021/07/28 06:03:36;;;;;;;28.58;13.98;;;;;;;;;;6301455;22;20010;-53
2021/07/28 06:06:01;;;;;;;14.68;10.63;;;;;;;;;;6300972;22;20678;-52
2021/07/28 06:08:26;;;;;;;10.90;9.80;;;;;;;;;;6301482;22;20003;-49
2021/07/28 06:10:52;;;;;;;12.40;9.70;;;;;;;;;;6300946;22;20001;-48
2021/07/28 06:13:17;;;;;;;21.63;14.10;;;;;;;;;;6301458;22;20014;-49
2021/07/28 06:15:42;;;;;;;20.80;17.95;;;;;;;;;;6301871;22;20074;-49
2021/07/28 06:18:07;;;;;;;33.20;23.83;;;;;;;;;;6301203;22;20387;-52
2021/07/28 06:20:33;;;;;;;30.92;27.73;;;;;;;;;;6301127;22;20007;-50
2021/07/28 06:22:58;;;;;;;31.33;23.88;;;;;;;;;;6301122;22;19996;-51
2021/07/28 06:25:23;;;;;;;34.72;25.00;;;;;;;;;;6301277;22;20070;-50
2021/07/28 06:27:50;;;;;;;36.70;27.77;;;;;;;;;;6301463;22;19999;-54
2021/07/28 06:30:15;;;;;;;32.80;26.92;;;;;;;;;;6301333;22;19995;-54
2021/07/28 06:32:41;;;;;;;33.72;30.30;;;;;;;;;;6300580;22;20137;-54
2021/07/28 06:35:06;;;;;;;77.20;49.05;;;;;;;;;;6301243;22;20010;-55
2021/07/28 06:37:31;;;;;;;29.08;23.33;;;;;;;;;;6300997;22;20011;-51
2021/07/28 06:39:57;;;;;;;22.70;17.98;;;;;;;;;;6300554;22;20022;-54
2021/07/28 06:42:22;;;;;;;17.48;14.07;;;;;;;;;;6299313;22;20013;-49
2021/07/28 06:44:49;;;;;;;15.80;13.82;;;;;;;;;;6299230;22;20086;-57
2021/07/28 06:47:15;;;;;;;45.63;31.30;;;;;;;;;;6299579;22;20432;-54
2021/07/28 06:49:40;;;;;;;33.95;27.05;;;;;;;;;;6299569;22;20058;-50
2021/07/28 06:52:05;;;;;;;26.50;20.02;;;;;;;;;;6300835;22;20006;-53
2021/07/28 06:54:31;;;;;;;24.40;21.13;;;;;;;;;;6301713;22;20001;-55
2021/07/28 06:56:56;;;;;;;18.35;15.65;;;;;;;;;;6300937;22;20432;-54
2021/07/28 06:59:21;;;;;;;19.15;17.15;;;;;;;;;;6301094;22;20702;-55
2021/07/28 07:01:47;;;;;;;10.55;9.45;;;;;;;;;;6300864;22;20053;-53
2021/07/28 07:04:12;;;;;;;14.55;12.10;;;;;;;;;;6302877;22;20062;-53
2021/07/28 07:06:37;;;;;;;22.63;13.98;;;;;;;;;;6302998;22;20026;-53
2021/07/28 07:09:03;;;;;;;11.50;9.88;;;;;;;;;;6303013;22;19992;-55
2021/07/28 07:11:28;;;;;;;7.53;6.45;;;;;;;;;;6302840;22;20520;-54
2021/07/28 07:13:53;;;;;;;6.63;5.90;;;;;;;;;;6302753;22;20082;-54
2021/07/28 07:16:19;;;;;;;7.20;5.15;;;;;;;;;;6301483;22;20003;-54
2021/07/28 07:18:44;;;;;;;12.15;5.15;;;;;;;;;;6302713;22;20007;-53
2021/07/28 07:21:09;;;;;;;6.40;5.53;;;;;;;;;;6303038;22;20048;-50
2021/07/28 07:23:35;;;;;;;6.80;5.72;;;;;;;;;;6298486;22;20421;-53
2021/07/28 07:26:01;;;;;;;9.95;6.28;;;;;;;;;;6298751;22;20003;-55
2021/07/28 07:28:27;;;;;;;7.07;5.50;;;;;;;;;;6299686;22;20002;-51
2021/07/28 07:30:52;;;;;;;6.30;4.38;;;;;;;;;;6299097;22;20522;-53
2021/07/28 07:36:01;;;;;;;9.93;6.63;;;;;;;;;;6299089;22;20568;-53
2021/07/28 07:38:26;;;;;;;8.13;6.40;;;;;;;;;;6299302;22;20004;-54
2021/07/28 07:40:52;;;;;;;17.42;7.00;;;;;;;;;;6299283;22;20011;-51
2021/07/28 07:43:17;;;;;;;6.38;5.78;;;;;;;;;;6299808;22;20006;-48
2021/07/28 07:45:42;;;;;;;7.88;5.32;;;;;;;;;;6299670;22;20025;-61
2021/07/28 07:48:08;;;;;;;8.73;6.30;;;;;;;;;;6299729;22;20783;-59
2021/07/28 07:50:35;;;;;;;5.97;4.80;;;;;;;;;;6300682;22;20074;-60
2021/07/28 07:53:01;;;;;;;6.95;4.43;;;;;;;;;;6299096;22;20753;-61
2021/07/28 07:55:26;;;;;;;6.03;5.18;;;;;;;;;;6298877;22;20003;-62
2021/07/28 07:57:52;;;;;;;8.98;8.07;;;;;;;;;;6299131;22;20026;-61
2021/07/28 08:00:17;;;;;;;6.00;5.40;;;;;;;;;;6299238;22;20341;-61
2021/07/28 08:02:42;;;;;;;7.10;5.85;;;;;;;;;;6299106;22;19999;-60
2021/07/28 08:05:08;;;;;;;11.20;6.20;;;;;;;;;;6299060;22;20384;-60
2021/07/28 08:07:33;;;;;;;8.43;6.93;;;;;;;;;;6299136;22;19998;-60
2021/07/28 08:09:58;;;;;;;6.40;5.07;;;;;;;;;;6298947;22;20456;-61
2021/07/28 08:12:24;;;;;;;10.32;5.93;;;;;;;;;;6298588;22;20010;-61
2021/07/28 08:14:50;;;;;;;12.02;6.88;;;;;;;;;;6298903;22;20080;-61
2021/07/28 08:17:15;;;;;;;6.22;5.55;;;;;;;;;;6298972;22;20041;-61
2021/07/28 08:19:40;;;;;;;10.85;5.47;;;;;;;;;;6299153;22;20019;-60
2021/07/28 08:22:06;;;;;;;11.65;3.13;;;;;;;;;;6298522;22;20003;-61
2021/07/28 08:24:31;;;;;;;5.45;4.22;;;;;;;;;;6299045;22;20004;-60
2021/07/28 08:26:56;;;;;;;8.32;4.30;;;;;;;;;;6299145;22;20597;-60
2021/07/28 08:29:21;;;;;;;4.65;4.10;;;;;;;;;;6300173;22;20333;-60
2021/07/28 08:31:47;;;;;;;14.95;4.07;;;;;;;;;;6300112;22;20003;-60
2021/07/28 08:34:12;;;;;;;6.10;3.88;;;;;;;;;;6299376;22;20077;-58
2021/07/28 08:36:37;;;;;;;15.32;4.93;;;;;;;;;;6299439;22;20040;-58
2021/07/28 08:39:03;;;;;;;10.75;5.70;;;;;;;;;;6298790;22;20030;-59
2021/07/28 08:41:29;;;;;;;6.95;4.65;;;;;;;;;;6298789;22;20003;-60
2021/07/28 08:43:56;;;;;;;8.20;4.25;;;;;;;;;;6298740;22;19999;-59
2021/07/28 08:46:24;;;;;;;9.73;4.97;;;;;;;;;;6298421;22;20486;-58
2021/07/28 08:48:49;;;;;;;8.70;4.50;;;;;;;;;;6298442;22;19996;-58
2021/07/28 08:51:16;;;;;;;19.70;4.15;;;;;;;;;;6298544;22;20021;-59
2021/07/28 08:53:42;;;;;;;5.25;3.88;;;;;;;;;;6298078;22;20360;-58
2021/07/28 08:56:07;;;;;;;11.75;3.30;;;;;;;;;;6298345;22;20000;-59
2021/07/28 08:58:33;;;;;;;12.60;4.53;;;;;;;;;;6299311;22;20082;-59
2021/07/28 09:00:58;;;;;;;4.32;3.60;;;;;;;;;;6298486;22;20006;-59
2021/07/28 09:03:23;;;;;;;6.88;4.45;;;;;;;;;;6299268;22;19995;-59
2021/07/28 09:05:50;;;;;;;7.50;4.60;;;;;;;;;;6300735;22;20003;-58
2021/07/28 09:08:22;;;;;;;10.50;4.78;;;;;;;;;;6301901;22;20018;-59
2021/07/28 09:10:52;;;;;;;6.25;3.83;;;;;;;;;;6301860;22;19995;-59
2021/07/28 09:13:33;;;;;;;276.33;69.43;;;;;;;;;;6301824;22;20053;-59
2021/07/28 09:16:00;;;;;;;9.60;6.05;;;;;;;;;;6302019;22;20057;-60
2021/07/28 09:18:27;;;;;;;8.32;4.47;;;;;;;;;;6301403;22;20422;-60
2021/07/28 09:20:52;;;;;;;8.40;5.35;;;;;;;;;;6302037;22;20018;-60
2021/07/28 09:23:17;;;;;;;8.48;3.72;;;;;;;;;;6301652;22;20168;-60
2021/07/28 09:25:43;;;;;;;13.70;7.63;;;;;;;;;;6301502;22;20351;-60
2021/07/28 09:28:17;;;;;;;6.03;5.45;;;;;;;;;;6301191;22;19999;-60
2021/07/28 09:30:42;;;;;;;21.50;7.85;;;;;;;;;;6301049;22;19999;-58
2021/07/28 09:33:10;;;;;;;7.32;4.68;;;;;;;;;;6301597;22;20007;-59
2021/07/28 09:35:48;;;;;;;6.10;4.35;;;;;;;;;;6301367;22;20000;-58
2021/07/28 09:38:32;;;;;;;7.50;4.38;;;;;;;;;;6301807;22;19999;-58
2021/07/28 09:41:18;;;;;;;13.10;5.45;;;;;;;;;;6301422;22;20484;-61
2021/07/28 09:43:44;;;;;;;7.15;4.68;;;;;;;;;;6301003;22;20504;-60
2021/07/28 09:46:22;;;;;;;3.63;3.25;;;;;;;;;;6301663;22;20052;-60
2021/07/28 09:48:47;;;;;;;9.00;4.72;;;;;;;;;;6301252;22;19995;-61
2021/07/28 09:51:23;;;;;;;6.32;4.50;;;;;;;;;;6301447;22;19995;-60
2021/07/28 09:53:55;;;;;;;11.32;3.95;;;;;;;;;;6301451;22;20022;-62
2021/07/28 09:56:27;;;;;;;13.30;4.95;;;;;;;;;;6302046;22;20038;-61
2021/07/28 09:58:53;;;;;;;6.10;3.17;;;;;;;;;;6301693;22;20000;-62
2021/07/28 10:01:18;;;;;;;6.28;4.68;;;;;;;;;;6301463;22;20072;-61
2021/07/28 10:03:45;;;;;;;4.38;3.75;;;;;;;;;;6301360;22;20002;-62
2021/07/28 10:06:11;;;;;;;6.78;3.08;;;;;;;;;;6301385;22;20063;-62
2021/07/28 10:08:36;;;;;;;5.38;3.75;;;;;;;;;;6301088;22;20026;-63
2021/07/28 10:11:01;;;;;;;5.78;4.43;;;;;;;;;;6301621;22;20053;-63
2021/07/28 10:13:27;;;;;;;9.82;4.95;;;;;;;;;;6301722;22;20140;-62
2021/07/28 10:15:52;;;;;;;14.77;5.05;;;;;;;;;;6301283;22;20037;-62
2021/07/28 10:18:18;;;;;;;19.45;7.45;;;;;;;;;;6301376;22;19999;-62
2021/07/28 10:20:43;;;;;;;12.60;8.57;;;;;;;;;;6301463;22;19999;-62
2021/07/28 10:23:09;;;;;;;5.97;5.15;;;;;;;;;;6301305;22;20013;-62
2021/07/28 10:25:34;;;;;;;13.00;9.32;;;;;;;;;;6301535;22;20066;-61
2021/07/28 10:27:59;;;;;;;8.73;5.13;;;;;;;;;;6301091;22;19999;-62
2021/07/28 10:30:25;;;;;;;5.82;4.50;;;;;;;;;;6301361;22;20117;-62
2021/07/28 10:32:51;;;;;;;6.25;4.20;;;;;;;;;;6300700;22;20051;-62
2021/07/28 10:35:16;;;;;;;6.03;3.95;;;;;;;;;;6301718;22;20030;-62
2021/07/28 10:37:42;;;;;;;15.40;4.97;;;;;;;;;;6301541;22;19999;-61
2021/07/28 10:40:27;;;;;;;6.95;4.65;;;;;;;;;;6301006;22;20007;-62
2021/07/28 10:42:55;;;;;;;5.15;4.50;;;;;;;;;;6300430;22;20027;-63
2021/07/28 10:45:22;;;;;;;7.65;4.25;;;;;;;;;;6300981;22;19987;-63
2021/07/28 10:47:51;;;;;;;4.50;3.53;;;;;;;;;;6300989;22;20003;-64
2021/07/28 10:50:22;;;;;;;11.13;4.60;;;;;;;;;;6301491;22;19999;-63
2021/07/28 10:52:48;;;;;;;11.57;4.35;;;;;;;;;;6300895;22;19991;-62
2021/07/28 10:55:24;;;;;;;8.57;2.85;;;;;;;;;;6300949;22;20061;-63
2021/07/28 10:57:52;;;;;;;5.78;3.40;;;;;;;;;;6301128;22;20035;-63
2021/07/28 11:00:39;;;;;;;5.28;3.72;;;;;;;;;;6300336;22;20007;-63
2021/07/28 11:03:12;;;;;;;10.10;4.90;;;;;;;;;;6300428;22;20034;-63
2021/07/28 11:05:41;;;;;;;7.03;5.35;;;;;;;;;;6300884;22;20026;-63
2021/07/28 11:08:14;;;;;;;4.20;3.55;;;;;;;;;;6300813;22;20003;-63
2021/07/28 11:10:58;;;;;;;4.65;3.22;;;;;;;;;;6301419;22;20007;-63
2021/07/28 11:13:24;;;;;;;5.60;4.18;;;;;;;;;;6300913;22;20459;-64
2021/07/28 11:15:59;;;;;;;3.03;2.70;;;;;;;;;;6300888;22;20444;-63
2021/07/28 11:18:34;;;;;;;5.30;3.28;;;;;;;;;;6301119;22;20083;-64
2021/07/28 11:21:09;;;;;;;5.57;4.13;;;;;;;;;;6300823;22;20053;-63
2021/07/28 11:23:34;;;;;;;5.10;3.47;;;;;;;;;;6301490;22;20000;-64
2021/07/28 11:26:00;;;;;;;12.60;3.83;;;;;;;;;;6300933;22;20003;-63
2021/07/28 11:28:26;;;;;;;11.73;3.85;;;;;;;;;;6301289;22;20228;-62
2021/07/28 11:30:55;;;;;;;6.55;3.20;;;;;;;;;;6301202;22;20417;-62
2021/07/28 11:33:20;;;;;;;8.50;2.67;;;;;;;;;;6301467;22;20003;-62
2021/07/28 11:35:47;;;;;;;5.57;4.10;;;;;;;;;;6301052;22;20010;-62
2021/07/28 11:38:15;;;;;;;3.03;2.70;;;;;;;;;;6302032;22;20082;-63
2021/07/28 11:40:47;;;;;;;3.92;2.92;;;;;;;;;;6302573;22;20011;-62
2021/07/28 11:43:27;;;;;;;3.67;2.72;;;;;;;;;;6302819;22;20463;-62
2021/07/28 11:45:53;;;;;;;5.40;3.35;;;;;;;;;;6303050;22;20416;-63
2021/07/28 11:48:31;;;;;;;6.85;4.97;;;;;;;;;;6303174;22;20013;-63
2021/07/28 11:50:57;;;;;;;17.13;5.30;;;;;;;;;;6302312;22;19995;-63
2021/07/28 11:53:26;;;;;;;10.43;4.78;;;;;;;;;;6302930;22;20026;-62
2021/07/28 11:55:54;;;;;;;11.27;3.67;;;;;;;;;;6302605;22;20046;-63
2021/07/28 11:58:20;;;;;;;4.63;2.80;;;;;;;;;;6303155;22;20043;-62
2021/07/28 12:00:48;;;;;;;5.82;2.55;;;;;;;;;;6302993;22;20049;-62
2021/07/28 12:03:19;;;;;;;8.77;3.85;;;;;;;;;;6302376;22;20451;-64
2021/07/28 12:06:04;;;;;;;21.35;4.28;;;;;;;;;;6302457;22;19991;-62
2021/07/28 12:08:33;;;;;;;4.00;2.60;;;;;;;;;;6302907;22;20002;-62
2021/07/28 12:11:09;;;;;;;4.82;4.10;;;;;;;;;;6302531;22;20073;-62
2021/07/28 12:13:40;;;;;;;5.65;3.75;;;;;;;;;;6302335;22;20027;-61
2021/07/28 12:16:05;;;;;;;4.38;3.95;;;;;;;;;;6302735;22;20095;-61
2021/07/28 12:18:47;;;;;;;4.88;3.15;;;;;;;;;;6302425;22;20706;-61
2021/07/28 12:21:13;;;;;;;8.00;3.38;;;;;;;;;;6302051;22;19999;-61
2021/07/28 12:23:52;;;;;;;3.03;2.58;;;;;;;;;;6302262;22;20003;-62
2021/07/28 12:26:37;;;;;;;6.05;3.13;;;;;;;;;;6302224;22;20022;-62
2021/07/28 12:29:02;;;;;;;7.35;3.80;;;;;;;;;;6302629;22;20026;-62
2021/07/28 12:31:28;;;;;;;3.80;3.03;;;;;;;;;;6302312;22;20373;-62
2021/07/28 12:33:54;;;;;;;8.73;3.15;;;;;;;;;;6302389;22;20007;-62
2021/07/28 12:36:27;;;;;;;3.40;2.35;;;;;;;;;;6302444;22;20344;-62
2021/07/28 12:38:52;;;;;;;19.55;3.67;;;;;;;;;;6301743;22;20060;-62
2021/07/28 12:41:18;;;;;;;7.28;3.13;;;;;;;;;;6302654;22;20003;-61
2021/07/28 12:43:43;;;;;;;7.72;3.60;;;;;;;;;;6302425;22;20309;-63
2021/07/28 12:46:12;;;;;;;9.15;4.20;;;;;;;;;;6302762;22;20034;-62
2021/07/28 12:48:38;;;;;;;4.63;3.65;;;;;;;;;;6301564;22;20010;-61
2021/07/28 12:51:04;;;;;;;13.50;3.83;;;;;;;;;;6302380;22;20007;-61
2021/07/28 12:53:30;;;;;;;6.25;4.45;;;;;;;;;;6302297;22;19999;-61
2021/07/28 12:55:55;;;;;;;8.07;4.78;;;;;;;;;;6301692;22;20052;-62
2021/07/28 12:58:21;;;;;;;6.57;3.90;;;;;;;;;;6301901;22;20087;-61
2021/07/28 13:00:46;;;;;;;4.35;3.40;;;;;;;;;;6301963;22;20093;-63
2021/07/28 13:03:15;;;;;;;5.55;3.78;;;;;;;;;;6302545;22;19995;-62
2021/07/28 13:05:41;;;;;;;7.18;4.10;;;;;;;;;;6302121;22;20006;-61
2021/07/28 13:08:08;;;;;;;7.00;3.28;;;;;;;;;;6302237;22;20113;-61
2021/07/28 13:10:34;;;;;;;6.35;4.90;;;;;;;;;;6301981;22;20421;-63
2021/07/28 13:12:59;;;;;;;7.22;3.65;;;;;;;;;;6302333;22;20048;-62
2021/07/28 13:15:25;;;;;;;6.43;3.78;;;;;;;;;;6301869;22;20442;-63
2021/07/28 13:17:51;;;;;;;13.15;5.03;;;;;;;;;;6302189;22;20003;-61
2021/07/28 13:20:16;;;;;;;8.50;3.63;;;;;;;;;;6301914;22;20063;-63
2021/07/28 13:22:42;;;;;;;4.68;3.25;;;;;;;;;;6301784;22;20395;-62
2021/07/28 13:25:08;;;;;;;9.77;3.28;;;;;;;;;;6301871;22;19987;-61
2021/07/28 13:27:33;;;;;;;4.60;3.88;;;;;;;;;;6301470;22;19999;-61
2021/07/28 13:29:58;;;;;;;6.55;5.28;;;;;;;;;;6301547;22;20057;-61
2021/07/28 13:32:25;;;;;;;4.32;3.35;;;;;;;;;;6302148;22;20003;-62
2021/07/28 13:34:50;;;;;;;5.00;3.47;;;;;;;;;;6301683;22;19995;-62
2021/07/28 13:37:16;;;;;;;3.90;3.28;;;;;;;;;;6302017;22;20084;-62
2021/07/28 13:39:41;;;;;;;6.45;3.70;;;;;;;;;;6301659;22;20441;-62
2021/07/28 13:42:06;;;;;;;11.20;4.07;;;;;;;;;;6301396;22;20085;-61
2021/07/28 13:44:31;;;;;;;8.95;4.93;;;;;;;;;;6302058;22;19998;-61
2021/07/28 13:47:02;;;;;;;5.78;4.18;;;;;;;;;;6301667;22;19995;-61
2021/07/28 13:49:27;;;;;;;10.75;4.68;;;;;;;;;;6301584;22;20026;-61
2021/07/28 13:51:52;;;;;;;8.38;4.03;;;;;;;;;;6301707;22;20002;-61
2021/07/28 13:54:18;;;;;;;7.65;5.28;;;;;;;;;;6301822;22;19991;-61
2021/07/28 13:56:43;;;;;;;17.38;5.38;;;;;;;;;;6301781;22;20425;-61
2021/07/28 13:59:11;;;;;;;5.10;4.03;;;;;;;;;;6301671;22;20333;-61
2021/07/28 14:01:36;;;;;;;7.25;4.22;;;;;;;;;;6301361;22;20726;-62
2021/07/28 14:04:02;;;;;;;5.70;4.72;;;;;;;;;;6301485;22;20005;-62
2021/07/28 14:06:27;;;;;;;9.07;5.28;;;;;;;;;;6302143;22;20006;-61
2021/07/28 14:08:52;;;;;;;28.45;4.43;;;;;;;;;;6301622;22;19992;-62
2021/07/28 14:11:18;;;;;;;6.53;4.63;;;;;;;;;;6301783;22;20078;-62
2021/07/28 14:13:43;;;;;;;5.13;4.45;;;;;;;;;;6301113;22;20019;-62
2021/07/28 14:16:10;;;;;;;24.58;6.32;;;;;;;;;;6301145;22;20033;-62
2021/07/28 14:18:35;;;;;;;14.32;4.18;;;;;;;;;;6301184;22;20452;-62
2021/07/28 14:21:01;;;;;;;5.53;2.67;;;;;;;;;;6301580;22;20011;-61
2021/07/28 14:23:26;;;;;;;4.70;3.50;;;;;;;;;;6301478;22;20437;-61
2021/07/28 14:25:51;;;;;;;4.82;2.50;;;;;;;;;;6301514;22;19995;-62
2021/07/28 14:28:17;;;;;;;8.30;4.50;;;;;;;;;;6301549;22;19995;-61
2021/07/28 14:30:42;;;;;;;6.35;4.68;;;;;;;;;;6301075;22;20502;-57
2021/07/28 14:33:07;;;;;;;3.95;3.13;;;;;;;;;;6301271;22;20003;-59
2021/07/28 14:35:33;;;;;;;10.55;4.57;;;;;;;;;;6301196;22;20386;-59
2021/07/28 14:37:58;;;;;;;6.80;3.72;;;;;;;;;;6301078;22;20010;-59
2021/07/28 14:40:23;;;;;;;4.43;3.50;;;;;;;;;;6301568;22;19995;-59